createdAt,value
2023-01-13T00:00:24.316Z,99350.66
2023-01-13T00:01:07.921Z,99346.16
2023-01-13T00:01:49.505Z,99326.13
2023-01-13T00:02:31.155Z,99350.25
2023-01-13T00:03:12.784Z,99350.88
2023-01-13T00:03:54.841Z,99342.50
2023-01-13T00:04:36.495Z,99290.16
2023-01-13T00:05:18.304Z,99319.59
2023-01-13T00:06:00.059Z,99329.41
2023-01-13T00:06:41.720Z,99295.03
2023-01-13T00:07:23.388Z,99342.06
2023-01-13T00:08:06.285Z,99343.69
2023-01-13T00:08:49.265Z,99315.28
2023-01-13T00:09:30.816Z,99342.25
2023-01-13T00:10:12.491Z,99335.09
2023-01-13T00:10:54.073Z,99326.94
2023-01-13T00:11:35.637Z,99334.91
2023-01-13T00:12:17.297Z,99314.91
2023-01-13T00:12:58.947Z,99331.88
2023-01-13T00:13:40.543Z,99335.53
2023-01-13T00:14:22.268Z,99335.53
2023-01-13T00:15:04.150Z,99338.00
2023-01-13T00:15:55.745Z,99310.78
2023-01-13T00:16:38.433Z,99338.38
2023-01-13T00:17:20.040Z,99335.72
2023-01-13T00:18:01.739Z,99337.75
2023-01-13T00:18:43.885Z,99348.38
2023-01-13T00:19:25.448Z,99341.22
2023-01-13T00:20:08.040Z,99352.66
2023-01-13T00:20:58.985Z,99334.09
2023-01-13T00:21:40.611Z,99344.69
2023-01-13T00:22:22.413Z,99342.44
2023-01-13T00:23:04.379Z,99336.13
2023-01-13T00:23:46.816Z,99350.81
2023-01-13T00:24:28.440Z,99320.78
2023-01-13T00:25:10.116Z,99346.53
2023-01-13T00:25:51.694Z,99344.91
2023-01-13T00:26:35.739Z,99334.91
2023-01-13T00:27:17.704Z,99343.25
2023-01-13T00:27:59.261Z,99346.72
2023-01-13T00:28:41.181Z,99312.00
2023-01-13T00:29:22.863Z,99314.22
2023-01-13T00:30:05.958Z,99333.47
2023-01-13T00:30:47.454Z,99335.09
2023-01-13T00:31:30.411Z,99333.91
2023-01-13T00:32:12.309Z,99331.25
2023-01-13T00:32:53.989Z,99331.25
2023-01-13T00:33:36.308Z,99335.94
2023-01-13T00:34:17.923Z,99328.97
2023-01-13T00:34:59.610Z,99323.06
2023-01-13T00:35:41.203Z,99332.47
2023-01-13T00:36:22.827Z,99335.53
2023-01-13T00:37:04.452Z,99335.72
2023-01-13T00:37:46.024Z,99336.13
2023-01-13T00:38:28.044Z,99307.72
2023-01-13T00:39:09.735Z,99330.81
2023-01-13T00:39:52.284Z,99314.28
2023-01-13T00:40:33.922Z,99324.69
2023-01-13T00:41:21.033Z,99323.28
2023-01-13T00:42:21.218Z,99279.50
2023-01-13T00:43:21.310Z,99300.94
2023-01-13T00:44:02.940Z,99321.22
2023-01-13T00:44:44.499Z,99320.38
2023-01-13T00:45:26.074Z,99322.22
2023-01-13T00:46:09.847Z,99324.88
2023-01-13T00:46:51.522Z,99317.94
2023-01-13T00:47:33.243Z,99307.72
2023-01-13T00:48:14.767Z,99297.72
2023-01-13T00:48:56.423Z,99309.34
2023-01-13T00:49:38.165Z,99299.75
2023-01-13T00:50:19.779Z,99301.81
2023-01-13T00:51:04.648Z,99312.25
2023-01-13T00:51:46.207Z,99289.78
2023-01-13T00:52:27.816Z,99304.47
2023-01-13T00:53:09.418Z,99295.09
2023-01-13T00:53:51.896Z,99294.41
2023-01-13T00:54:33.647Z,99294.69
2023-01-13T00:55:15.287Z,99295.13
2023-01-13T00:56:01.784Z,99292.66
2023-01-13T00:56:43.346Z,99295.50
2023-01-13T00:57:24.918Z,99297.34
2023-01-13T00:58:06.503Z,99301.00
2023-01-13T00:58:48.248Z,99295.91
2023-01-13T00:59:29.874Z,99298.56
2023-01-13T01:00:12.124Z,99300.38
2023-01-13T01:00:53.836Z,99288.50
2023-01-13T01:01:35.578Z,99301.19
2023-01-13T01:02:17.249Z,99282.00
2023-01-13T01:02:58.969Z,99295.91
2023-01-13T01:03:40.721Z,99282.44
2023-01-13T01:04:22.271Z,99295.47
2023-01-13T01:05:04.008Z,99292.63
2023-01-13T01:05:45.539Z,99296.72
2023-01-13T01:06:28.009Z,99300.19
2023-01-13T01:07:09.619Z,99298.34
2023-01-13T01:07:51.296Z,99294.06
2023-01-13T01:08:34.587Z,99295.47
2023-01-13T01:09:16.882Z,99299.56
2023-01-13T01:09:58.570Z,99310.59
2023-01-13T01:10:40.208Z,99306.13
2023-01-13T01:11:24.836Z,99304.91
2023-01-13T01:12:06.691Z,99283.22
2023-01-13T01:12:48.307Z,99287.75
2023-01-13T01:13:29.985Z,99315.53
2023-01-13T01:14:12.949Z,99305.31
2023-01-13T01:14:54.591Z,99307.13
2023-01-13T01:15:40.310Z,99304.69
2023-01-13T01:16:24.295Z,99306.69
2023-01-13T01:17:06.001Z,99306.06
2023-01-13T01:17:47.561Z,99303.44
2023-01-13T01:18:29.108Z,99301.00
2023-01-13T01:19:10.699Z,99308.16
2023-01-13T01:19:52.258Z,99283.03
2023-01-13T01:20:33.848Z,99286.69
2023-01-13T01:21:16.724Z,99312.63
2023-01-13T01:21:58.279Z,99311.00
2023-01-13T01:22:39.882Z,99277.91
2023-01-13T01:23:21.479Z,99246.41
2023-01-13T01:24:04.248Z,99306.91
2023-01-13T01:24:47.757Z,99303.03
2023-01-13T01:25:29.438Z,99312.63
2023-01-13T01:26:26.009Z,99309.16
2023-01-13T01:27:07.566Z,99303.03
2023-01-13T01:27:49.105Z,99294.41
2023-01-13T01:28:30.834Z,99315.84
2023-01-13T01:29:15.482Z,99304.63
2023-01-13T01:29:57.008Z,99297.84
2023-01-13T01:30:39.455Z,99272.09
2023-01-13T01:31:24.674Z,99300.31
2023-01-13T01:32:06.310Z,99306.63
2023-01-13T01:32:47.837Z,99311.09
2023-01-13T01:33:29.400Z,99290.22
2023-01-13T01:34:11.052Z,99299.50
2023-01-13T01:34:52.643Z,99306.19
2023-01-13T01:35:34.205Z,99306.56
2023-01-13T01:36:18.000Z,99293.06
2023-01-13T01:36:59.565Z,99304.91
2023-01-13T01:37:41.109Z,99305.50
2023-01-13T01:38:23.344Z,99292.78
2023-01-13T01:39:05.325Z,99287.09
2023-01-13T01:39:46.919Z,99282.94
2023-01-13T01:40:28.631Z,99293.16
2023-01-13T01:41:17.602Z,99273.50
2023-01-13T01:42:17.760Z,99292.91
2023-01-13T01:43:17.938Z,99299.66
2023-01-13T01:44:04.159Z,99311.03
2023-01-13T01:45:00.128Z,99292.19
2023-01-13T01:45:41.712Z,99306.75
2023-01-13T01:46:23.316Z,99300.34
2023-01-13T01:47:05.075Z,99276.59
2023-01-13T01:47:50.403Z,99298.16
2023-01-13T01:48:40.662Z,99289.34
2023-01-13T01:49:27.228Z,99294.88
2023-01-13T01:50:10.036Z,99290.53
2023-01-13T01:50:52.607Z,99298.69
2023-01-13T01:51:43.624Z,99289.72
2023-01-13T01:52:36.716Z,99294.22
2023-01-13T01:53:21.392Z,99293.19
2023-01-13T01:54:06.674Z,99289.94
2023-01-13T01:54:58.588Z,99292.19
2023-01-13T01:55:40.586Z,99271.28
2023-01-13T01:56:22.326Z,99276.19
2023-01-13T01:57:04.702Z,99290.09
2023-01-13T01:57:58.524Z,99298.22
2023-01-13T01:58:50.956Z,99287.44
2023-01-13T01:59:34.725Z,99258.84
2023-01-13T02:00:16.632Z,99279.13
2023-01-13T02:00:59.060Z,99277.88
2023-01-13T02:01:42.724Z,99269.69
2023-01-13T02:02:24.893Z,99281.53
2023-01-13T02:03:08.530Z,99279.25
2023-01-13T02:03:59.287Z,99240.41
2023-01-13T02:04:50.661Z,99268.44
2023-01-13T02:05:34.271Z,99250.84
2023-01-13T02:06:16.641Z,99246.34
2023-01-13T02:06:58.805Z,99266.16
2023-01-13T02:07:42.738Z,99245.09
2023-01-13T02:08:24.985Z,99268.38
2023-01-13T02:09:07.355Z,99268.59
2023-01-13T02:09:49.649Z,99268.97
2023-01-13T02:10:32.133Z,99245.50
2023-01-13T02:11:52.476Z,99253.28
2023-01-13T02:12:36.081Z,99250.00
2023-01-13T02:13:17.682Z,99256.28
2023-01-13T02:13:59.270Z,99238.75
2023-01-13T02:14:41.985Z,99254.53
2023-01-13T02:15:35.437Z,99254.53
2023-01-13T02:16:23.214Z,99232.91
2023-01-13T02:17:20.664Z,99251.88
2023-01-13T02:18:26.699Z,99251.47
2023-01-13T02:19:26.166Z,99254.94
2023-01-13T02:20:32.227Z,99250.47
2023-01-13T02:21:41.525Z,99250.91
2023-01-13T02:22:28.842Z,99253.81
2023-01-13T02:24:06.362Z,99245.66
2023-01-13T02:24:59.926Z,99246.28
2023-01-13T02:26:06.150Z,99251.56
2023-01-13T02:27:14.805Z,99230.75
2023-01-13T02:28:21.840Z,99250.19
2023-01-13T02:29:52.219Z,99251.00
2023-01-13T02:31:00.960Z,99248.75
2023-01-13T02:31:48.374Z,99248.34
2023-01-13T02:32:52.178Z,99249.00
2023-01-13T02:34:00.783Z,99235.28
2023-01-13T02:35:09.201Z,99239.41
2023-01-13T02:35:54.112Z,99259.69
2023-01-13T02:36:47.691Z,99263.00
2023-01-13T02:37:33.010Z,99263.44
2023-01-13T02:38:16.466Z,99238.91
2023-01-13T02:39:09.191Z,99251.19
2023-01-13T02:39:59.765Z,99276.28
2023-01-13T02:41:35.702Z,99256.13
2023-01-13T02:42:45.355Z,99247.09
2023-01-13T02:43:57.521Z,99259.34
2023-01-13T02:45:07.101Z,99257.16
2023-01-13T02:45:55.887Z,99253.69
2023-01-13T02:46:45.528Z,99254.69
2023-01-13T02:47:30.108Z,99251.84
2023-01-13T02:48:14.040Z,99256.97
2023-01-13T02:49:01.158Z,99236.50
2023-01-13T02:49:47.608Z,99255.06
2023-01-13T02:50:34.285Z,99239.59
2023-01-13T02:51:20.496Z,99241.44
2023-01-13T02:52:09.663Z,99217.31
2023-01-13T02:52:56.388Z,99235.72
2023-01-13T02:53:40.712Z,99246.34
2023-01-13T02:54:26.464Z,99245.16
2023-01-13T02:55:14.345Z,99247.19
2023-01-13T02:55:58.770Z,99251.47
2023-01-13T02:56:44.473Z,99257.78
2023-01-13T02:57:28.941Z,99220.63
2023-01-13T02:58:15.522Z,99249.38
2023-01-13T02:58:59.309Z,99243.47
2023-01-13T02:59:42.669Z,99239.00
2023-01-13T03:00:25.388Z,99213.22
2023-01-13T03:01:07.110Z,99239.41
2023-01-13T03:01:50.137Z,99224.84
2023-01-13T03:02:31.989Z,99219.53
2023-01-13T03:03:14.118Z,99235.69
2023-01-13T03:03:55.731Z,99243.44
2023-01-13T03:04:53.288Z,99241.44
2023-01-13T03:05:38.979Z,99222.19
2023-01-13T03:06:30.998Z,99233.84
2023-01-13T03:07:17.996Z,99234.69
2023-01-13T03:08:11.587Z,99226.72
2023-01-13T03:08:59.489Z,99194.19
2023-01-13T03:09:49.984Z,99226.69
2023-01-13T03:10:49.910Z,99229.94
2023-01-13T03:11:45.817Z,99229.75
2023-01-13T03:12:55.143Z,99233.44
2023-01-13T03:14:14.957Z,99233.44
2023-01-13T03:15:23.486Z,99231.97
2023-01-13T03:16:17.974Z,99233.03
2023-01-13T03:17:05.231Z,99221.78
2023-01-13T03:18:14.038Z,99226.28
2023-01-13T03:19:14.659Z,99222.53
2023-01-13T03:20:15.877Z,99203.91
2023-01-13T03:21:09.582Z,99209.06
2023-01-13T03:22:19.059Z,99220.34
2023-01-13T03:23:12.712Z,99222.38
2023-01-13T03:24:06.737Z,99224.00
2023-01-13T03:25:06.846Z,99221.38
2023-01-13T03:26:07.609Z,99180.47
2023-01-13T03:26:59.033Z,99221.38
2023-01-13T03:27:46.641Z,99195.44
2023-01-13T03:28:33.383Z,99208.13
2023-01-13T03:29:34.595Z,99210.19
2023-01-13T03:30:24.604Z,99210.78
2023-01-13T03:31:15.677Z,99204.69
2023-01-13T03:32:02.924Z,99211.41
2023-01-13T03:32:49.208Z,99213.88
2023-01-13T03:33:39.363Z,99209.59
2023-01-13T03:34:24.340Z,99191.84
2023-01-13T03:35:24.835Z,99202.66
2023-01-13T03:36:11.409Z,99209.19
2023-01-13T03:36:55.758Z,99196.78
2023-01-13T03:37:41.153Z,99213.09
2023-01-13T03:38:36.946Z,99153.81
2023-01-13T03:39:27.403Z,99206.78
2023-01-13T03:40:15.600Z,99193.13
2023-01-13T03:41:04.508Z,99179.63
2023-01-13T03:41:53.184Z,99204.53
2023-01-13T03:42:39.965Z,99210.84
2023-01-13T03:43:49.120Z,99204.53
2023-01-13T03:44:40.025Z,99194.78
2023-01-13T03:45:21.718Z,99173.94
2023-01-13T03:46:09.584Z,99181.53
2023-01-13T03:47:12.713Z,99197.66
2023-01-13T03:47:58.973Z,99192.97
2023-01-13T03:48:43.576Z,99180.75
2023-01-13T03:49:31.999Z,99162.53
2023-01-13T03:50:22.191Z,99188.31
2023-01-13T03:51:11.164Z,99188.50
2023-01-13T03:51:58.313Z,99184.03
2023-01-13T03:52:45.715Z,99182.56
2023-01-13T03:53:36.039Z,99183.19
2023-01-13T03:54:20.039Z,99179.13
2023-01-13T03:55:12.728Z,99182.78
2023-01-13T03:56:05.670Z,99184.22
2023-01-13T03:56:57.063Z,99183.22
2023-01-13T03:58:02.474Z,99174.44
2023-01-13T03:58:49.184Z,99178.34
2023-01-13T03:59:39.666Z,99173.66
2023-01-13T04:00:29.908Z,99174.63
2023-01-13T04:01:16.989Z,99178.97
2023-01-13T04:02:06.816Z,99184.06
2023-01-13T04:02:55.008Z,99148.34
2023-01-13T04:03:47.121Z,99176.72
2023-01-13T04:04:36.904Z,99189.00
2023-01-13T04:05:18.956Z,99168.56
2023-01-13T04:06:25.098Z,99172.25
2023-01-13T04:07:09.377Z,99179.63
2023-01-13T04:08:12.970Z,99174.34
2023-01-13T04:09:35.890Z,99172.50
2023-01-13T04:10:28.035Z,99162.69
2023-01-13T04:11:15.361Z,99168.41
2023-01-13T04:12:17.985Z,99158.81
2023-01-13T04:13:05.189Z,99166.78
2023-01-13T04:13:49.468Z,99170.25
2023-01-13T04:14:31.512Z,99164.13
2023-01-13T04:15:13.322Z,99170.25
2023-01-13T04:15:55.009Z,99165.56
2023-01-13T04:16:37.820Z,99166.19
2023-01-13T04:17:19.892Z,99157.56
2023-01-13T04:18:21.708Z,99171.28
2023-01-13T04:19:03.331Z,99179.03
2023-01-13T04:19:45.001Z,99152.31
2023-01-13T04:20:26.685Z,99162.09
2023-01-13T04:21:09.493Z,99138.00
2023-01-13T04:21:51.095Z,99160.06
2023-01-13T04:22:32.658Z,99123.72
2023-01-13T04:23:15.638Z,99164.34
2023-01-13T04:23:57.291Z,99162.91
2023-01-13T04:24:38.892Z,99158.03
2023-01-13T04:25:20.603Z,99141.66
2023-01-13T04:26:02.230Z,99133.31
2023-01-13T04:26:43.877Z,99170.28
2023-01-13T04:27:25.511Z,99173.13
2023-01-13T04:28:07.551Z,99161.91
2023-01-13T04:28:49.239Z,99176.78
2023-01-13T04:29:30.866Z,99164.53
2023-01-13T04:30:12.686Z,99173.50
2023-01-13T04:30:54.359Z,99185.94
2023-01-13T04:31:36.065Z,99170.88
2023-01-13T04:32:17.684Z,99170.47
2023-01-13T04:32:59.684Z,99161.69
2023-01-13T04:33:41.301Z,99172.91
2023-01-13T04:34:22.876Z,99180.88
2023-01-13T04:35:05.314Z,99170.28
2023-01-13T04:35:47.765Z,99167.81
2023-01-13T04:36:29.417Z,99153.09
2023-01-13T04:37:11.340Z,99145.78
2023-01-13T04:37:53.001Z,99162.31
2023-01-13T04:38:34.628Z,99170.66
2023-01-13T04:39:16.406Z,99165.97
2023-01-13T04:39:58.451Z,99149.25
2023-01-13T04:40:41.338Z,99141.09
2023-01-13T04:41:22.930Z,99153.31
2023-01-13T04:42:04.839Z,99152.91
2023-01-13T04:42:46.595Z,99169.44
2023-01-13T04:43:28.290Z,99161.50
2023-01-13T04:44:12.779Z,99180.06
2023-01-13T04:44:54.451Z,99179.66
2023-01-13T04:45:36.319Z,99166.41
2023-01-13T04:46:17.986Z,99184.56
2023-01-13T04:46:59.679Z,99160.47
2023-01-13T04:47:44.432Z,99168.22
2023-01-13T04:48:25.989Z,99146.97
2023-01-13T04:49:07.582Z,99158.84
2023-01-13T04:49:49.207Z,99177.59
2023-01-13T04:50:31.395Z,99168.22
2023-01-13T04:51:13.025Z,99144.91
2023-01-13T04:51:57.294Z,99176.97
2023-01-13T04:52:38.965Z,99151.06
2023-01-13T04:53:20.521Z,99172.09
2023-01-13T04:54:02.141Z,99165.97
2023-01-13T04:54:43.747Z,99157.81
2023-01-13T04:55:25.370Z,99163.72
2023-01-13T04:56:07.347Z,99174.34
2023-01-13T04:56:48.979Z,99168.00
2023-01-13T04:57:30.636Z,99161.03
2023-01-13T04:58:12.299Z,99151.50
2023-01-13T04:58:53.873Z,99163.34
2023-01-13T04:59:35.549Z,99130.66
2023-01-13T05:00:19.802Z,99174.34
2023-01-13T05:01:01.455Z,99145.34
2023-01-13T05:01:43.146Z,99155.53
2023-01-13T05:02:24.796Z,99165.16
2023-01-13T05:03:06.480Z,99163.94
2023-01-13T05:03:48.073Z,99167.19
2023-01-13T05:04:29.865Z,99158.44
2023-01-13T05:05:11.867Z,99141.47
2023-01-13T05:05:53.532Z,99153.53
2023-01-13T05:06:35.156Z,99152.06
2023-01-13T05:07:17.299Z,99163.09
2023-01-13T05:07:58.937Z,99154.53
2023-01-13T05:08:40.600Z,99154.53
2023-01-13T05:09:22.236Z,99155.16
2023-01-13T05:10:04.311Z,99153.13
2023-01-13T05:10:45.956Z,99158.84
2023-01-13T05:11:46.453Z,99153.53
2023-01-13T05:12:47.133Z,99146.22
2023-01-13T05:13:47.444Z,99157.63
2023-01-13T05:14:47.563Z,99148.25
2023-01-13T05:15:47.721Z,99122.53
2023-01-13T05:16:47.751Z,99145.19
2023-01-13T05:17:30.506Z,99159.50
2023-01-13T05:18:12.879Z,99148.88
2023-01-13T05:18:54.564Z,99127.06
2023-01-13T05:19:40.735Z,99137.22
2023-01-13T05:20:22.345Z,99141.72
2023-01-13T05:21:03.959Z,99139.69
2023-01-13T05:22:04.093Z,99141.91
2023-01-13T05:23:04.310Z,99128.88
2023-01-13T05:24:04.679Z,99140.31
2023-01-13T05:25:04.779Z,99142.75
2023-01-13T05:25:48.364Z,99133.16
2023-01-13T05:26:30.023Z,99135.00
2023-01-13T05:27:11.743Z,99121.94
2023-01-13T05:27:55.891Z,99146.22
2023-01-13T05:28:37.578Z,99140.72
2023-01-13T05:29:19.235Z,99135.00
2023-01-13T05:30:01.157Z,99128.28
2023-01-13T05:30:45.995Z,99138.06
2023-01-13T05:31:27.692Z,99076.03
2023-01-13T05:32:09.375Z,99104.38
2023-01-13T05:32:50.966Z,99147.03
2023-01-13T05:33:34.903Z,99135.59
2023-01-13T05:34:17.335Z,99135.00
2023-01-13T05:34:58.926Z,99102.78
2023-01-13T05:35:41.999Z,99140.09
2023-01-13T05:36:23.636Z,99134.78
2023-01-13T05:37:07.681Z,99138.69
2023-01-13T05:37:49.367Z,99136.84
2023-01-13T05:38:31.051Z,99136.44
2023-01-13T05:39:12.819Z,99127.88
2023-01-13T05:40:12.782Z,99141.13
2023-01-13T05:41:12.901Z,99125.19
2023-01-13T05:42:13.225Z,99118.66
2023-01-13T05:43:20.481Z,99149.50
2023-01-13T05:44:02.106Z,99138.88
2023-01-13T05:44:43.758Z,99131.53
2023-01-13T05:45:25.606Z,99134.59
2023-01-13T05:46:09.366Z,99136.84
2023-01-13T05:46:51.244Z,99126.03
2023-01-13T05:47:32.875Z,99134.41
2023-01-13T05:48:15.154Z,99140.31
2023-01-13T05:48:56.787Z,99139.09
2023-01-13T05:49:38.964Z,99134.81
2023-01-13T05:50:21.529Z,99121.34
2023-01-13T05:51:05.787Z,99134.78
2023-01-13T05:51:47.442Z,99127.66
2023-01-13T05:52:29.122Z,99133.78
2023-01-13T05:53:10.913Z,99112.56
2023-01-13T05:53:52.490Z,99123.16
2023-01-13T05:54:34.101Z,99087.84
2023-01-13T05:55:15.969Z,99115.41
2023-01-13T05:55:58.196Z,99125.44
2023-01-13T05:56:39.782Z,99128.28
2023-01-13T05:57:21.398Z,99119.72
2023-01-13T05:58:03.054Z,99115.63
2023-01-13T05:58:44.804Z,99124.41
2023-01-13T05:59:26.364Z,99126.84
2023-01-13T06:00:08.766Z,99122.53
2023-01-13T06:01:01.403Z,99124.38
2023-01-13T06:01:43.039Z,99119.91
2023-01-13T06:02:26.421Z,99113.78
2023-01-13T06:03:08.154Z,99128.69
2023-01-13T06:03:49.734Z,99129.50
2023-01-13T06:04:31.436Z,99131.13
2023-01-13T06:05:13.081Z,99096.44
2023-01-13T06:05:58.801Z,99135.81
2023-01-13T06:06:40.436Z,99146.03
2023-01-13T06:07:22.020Z,99078.28
2023-01-13T06:08:05.699Z,99136.84
2023-01-13T06:08:47.317Z,99116.66
2023-01-13T06:09:28.961Z,99136.03
2023-01-13T06:10:11.160Z,99125.00
2023-01-13T06:10:53.108Z,99118.28
2023-01-13T06:11:34.752Z,99119.09
2023-01-13T06:12:16.338Z,99130.31
2023-01-13T06:12:58.073Z,99138.25
2023-01-13T06:13:39.699Z,99119.91
2023-01-13T06:14:21.366Z,99107.66
2023-01-13T06:15:03.091Z,99113.78
2023-01-13T06:15:44.840Z,99127.25
2023-01-13T06:16:26.524Z,99105.41
2023-01-13T06:17:14.024Z,99128.66
2023-01-13T06:17:57.058Z,99126.63
2023-01-13T06:18:38.681Z,99111.53
2023-01-13T06:19:20.290Z,99106.63
2023-01-13T06:20:01.951Z,99131.13
2023-01-13T06:20:43.571Z,99118.06
2023-01-13T06:21:25.245Z,99134.78
2023-01-13T06:22:18.596Z,99133.16
2023-01-13T06:23:01.115Z,99111.94
2023-01-13T06:23:42.758Z,99100.72
2023-01-13T06:24:24.840Z,99125.41
2023-01-13T06:25:45.504Z,99150.13
2023-01-13T06:26:30.004Z,99139.72
2023-01-13T06:27:12.731Z,99138.06
2023-01-13T06:27:56.315Z,99118.06
2023-01-13T06:28:37.940Z,99139.47
2023-01-13T06:29:19.788Z,99129.09
2023-01-13T06:30:01.465Z,99135.63
2023-01-13T06:30:50.621Z,99133.56
2023-01-13T06:31:39.089Z,99129.69
2023-01-13T06:32:34.884Z,99132.97
2023-01-13T06:33:24.077Z,99138.88
2023-01-13T06:34:12.868Z,99115.81
2023-01-13T06:35:01.198Z,99116.84
2023-01-13T06:35:47.114Z,99131.53
2023-01-13T06:36:44.360Z,99138.47
2023-01-13T06:37:27.433Z,99133.97
2023-01-13T06:38:12.093Z,99138.28
2023-01-13T06:38:58.594Z,99134.78
2023-01-13T06:39:41.109Z,99127.03
2023-01-13T06:40:23.895Z,99142.75
2023-01-13T06:41:07.436Z,99137.44
2023-01-13T06:42:10.865Z,99102.38
2023-01-13T06:43:16.124Z,99131.13
2023-01-13T06:43:58.870Z,99140.91
2023-01-13T06:44:40.569Z,99107.44
2023-01-13T06:45:25.096Z,99118.06
2023-01-13T06:46:06.780Z,99113.97
2023-01-13T06:46:48.600Z,99142.75
2023-01-13T06:47:30.282Z,99137.44
2023-01-13T06:48:12.314Z,99133.16
2023-01-13T06:48:53.900Z,99123.78
2023-01-13T06:49:35.701Z,99144.59
2023-01-13T06:50:18.383Z,99136.63
2023-01-13T06:51:00.070Z,99146.63
2023-01-13T06:51:41.686Z,99146.22
2023-01-13T06:52:23.477Z,99136.03
2023-01-13T06:53:05.133Z,99136.25
2023-01-13T06:53:46.714Z,99139.28
2023-01-13T06:54:28.325Z,99152.75
2023-01-13T06:55:09.940Z,99129.09
2023-01-13T06:55:51.656Z,99128.66
2023-01-13T06:56:33.265Z,99125.78
2023-01-13T06:57:14.877Z,99128.25
2023-01-13T06:57:58.106Z,99142.91
2023-01-13T06:58:39.701Z,99135.16
2023-01-13T06:59:22.466Z,99143.72
2023-01-13T07:00:04.608Z,99145.56
2023-01-13T07:00:51.112Z,99134.75
2023-01-13T07:01:32.938Z,99137.00
2023-01-13T07:02:14.746Z,99124.59
2023-01-13T07:03:07.172Z,99145.19
2023-01-13T07:03:48.892Z,99125.59
2023-01-13T07:04:30.494Z,99147.03
2023-01-13T07:05:12.312Z,99154.97
2023-01-13T07:05:55.261Z,99154.97
2023-01-13T07:06:36.903Z,99098.00
2023-01-13T07:07:18.482Z,99126.38
2023-01-13T07:08:00.357Z,99155.53
2023-01-13T07:08:42.009Z,99159.00
2023-01-13T07:09:23.735Z,99156.75
2023-01-13T07:10:05.966Z,99160.63
2023-01-13T07:10:47.652Z,99160.78
2023-01-13T07:11:29.270Z,99168.88
2023-01-13T07:12:11.979Z,99157.41
2023-01-13T07:13:12.211Z,99158.13
2023-01-13T07:14:12.161Z,99156.25
2023-01-13T07:15:12.585Z,99140.84
2023-01-13T07:15:56.521Z,99156.91
2023-01-13T07:16:38.236Z,99158.97
2023-01-13T07:17:25.054Z,99153.06
2023-01-13T07:18:06.783Z,99121.56
2023-01-13T07:18:48.411Z,99131.69
2023-01-13T07:19:30.049Z,99139.19
2023-01-13T07:20:11.970Z,99162.19
2023-01-13T07:20:55.502Z,99150.97
2023-01-13T07:21:37.323Z,99166.66
2023-01-13T07:22:18.932Z,99153.59
2023-01-13T07:23:00.596Z,99157.25
2023-01-13T07:23:42.209Z,99159.00
2023-01-13T07:24:23.887Z,99156.25
2023-01-13T07:25:06.034Z,99156.84
2023-01-13T07:25:47.716Z,99123.97
2023-01-13T07:26:29.382Z,99141.50
2023-01-13T07:27:11.029Z,99145.38
2023-01-13T07:27:52.672Z,99099.22
2023-01-13T07:28:34.469Z,99174.75
2023-01-13T07:29:16.105Z,99155.41
2023-01-13T07:29:57.673Z,99160.66
2023-01-13T07:30:39.387Z,99141.41
2023-01-13T07:31:21.736Z,99173.50
2023-01-13T07:32:03.491Z,99163.66
2023-01-13T07:32:45.312Z,99151.22
2023-01-13T07:33:27.169Z,99175.97
2023-01-13T07:34:08.802Z,99149.34
2023-01-13T07:34:50.403Z,99180.63
2023-01-13T07:35:32.097Z,99176.91
2023-01-13T07:36:14.410Z,99197.31
2023-01-13T07:36:55.986Z,99197.25
2023-01-13T07:37:39.350Z,99189.91
2023-01-13T07:38:20.991Z,99201.94
2023-01-13T07:39:03.039Z,99214.63
2023-01-13T07:39:45.359Z,99203.56
2023-01-13T07:40:27.031Z,99221.91
2023-01-13T07:41:31.407Z,99245.31
2023-01-13T07:42:31.612Z,99266.13
2023-01-13T07:43:31.878Z,99241.91
2023-01-13T07:44:13.586Z,99262.13
2023-01-13T07:44:57.630Z,99241.31
2023-01-13T07:45:39.193Z,99232.78
2023-01-13T07:46:20.843Z,99259.91
2023-01-13T07:47:02.520Z,99262.47
2023-01-13T07:47:44.189Z,99216.94
2023-01-13T07:48:27.441Z,99211.66
2023-01-13T07:49:09.978Z,99257.16
2023-01-13T07:49:51.555Z,99243.97
2023-01-13T07:50:33.213Z,99222.06
2023-01-13T07:51:15.388Z,99271.94
2023-01-13T07:51:56.999Z,99271.31
2023-01-13T07:52:38.712Z,99268.84
2023-01-13T07:53:21.427Z,99270.38
2023-01-13T07:54:03.404Z,99245.84
2023-01-13T07:54:45.001Z,99274.84
2023-01-13T07:55:27.012Z,99238.00
2023-01-13T07:56:09.227Z,99269.59
2023-01-13T07:56:50.860Z,99278.59
2023-01-13T07:57:32.486Z,99268.59
2023-01-13T07:58:14.118Z,99274.69
2023-01-13T07:58:55.751Z,99266.69
2023-01-13T07:59:37.501Z,99219.22
2023-01-13T08:00:19.713Z,99282.00
2023-01-13T08:01:08.180Z,99277.88
2023-01-13T08:01:52.628Z,99270.97
2023-01-13T08:02:34.774Z,99272.50
2023-01-13T08:03:16.410Z,99258.69
2023-01-13T08:03:59.017Z,99265.56
2023-01-13T08:04:40.741Z,99268.50
2023-01-13T08:05:22.386Z,99271.97
2023-01-13T08:06:05.074Z,99271.78
2023-01-13T08:06:46.925Z,99279.88
2023-01-13T08:07:28.620Z,99271.16
2023-01-13T08:08:10.471Z,99286.44
2023-01-13T08:08:53.614Z,99283.44
2023-01-13T08:09:35.229Z,99287.72
2023-01-13T08:10:17.060Z,99280.34
2023-01-13T08:11:00.114Z,99282.44
2023-01-13T08:11:41.806Z,99274.25
2023-01-13T08:12:41.994Z,99283.00
2023-01-13T08:13:36.248Z,99284.81
2023-01-13T08:14:18.675Z,99269.59
2023-01-13T08:15:00.297Z,99284.34
2023-01-13T08:15:41.983Z,99291.44
2023-01-13T08:16:24.380Z,99291.09
2023-01-13T08:17:08.222Z,99265.84
2023-01-13T08:17:49.869Z,99266.00
2023-01-13T08:18:34.502Z,99290.44
2023-01-13T08:19:16.177Z,99272.06
2023-01-13T08:19:57.824Z,99285.81
2023-01-13T08:20:39.508Z,99286.00
2023-01-13T08:21:21.363Z,99278.34
2023-01-13T08:22:03.077Z,99287.34
2023-01-13T08:22:44.798Z,99293.44
2023-01-13T08:23:26.523Z,99299.63
2023-01-13T08:24:10.251Z,99287.63
2023-01-13T08:24:51.875Z,99302.47
2023-01-13T08:25:33.732Z,99301.66
2023-01-13T08:26:18.038Z,99315.88
2023-01-13T08:26:59.632Z,99315.06
2023-01-13T08:27:41.319Z,99306.03
2023-01-13T08:28:24.200Z,99305.47
2023-01-13T08:29:05.807Z,99318.03
2023-01-13T08:29:47.399Z,99302.66
2023-01-13T08:30:29.259Z,99275.72
2023-01-13T08:31:13.759Z,99306.94
2023-01-13T08:31:55.501Z,99312.66
2023-01-13T08:32:37.139Z,99301.03
2023-01-13T08:33:20.629Z,99307.84
2023-01-13T08:34:02.249Z,99311.47
2023-01-13T08:34:43.997Z,99293.91
2023-01-13T08:35:25.700Z,99308.84
2023-01-13T08:36:09.938Z,99309.47
2023-01-13T08:36:51.812Z,99304.13
2023-01-13T08:37:33.467Z,99300.09
2023-01-13T08:38:18.157Z,99308.00
2023-01-13T08:38:59.871Z,99313.31
2023-01-13T08:39:41.456Z,99304.13
2023-01-13T08:40:23.073Z,99319.22
2023-01-13T08:41:13.287Z,99296.03
2023-01-13T08:41:55.028Z,99315.69
2023-01-13T08:42:36.633Z,99334.06
2023-01-13T08:43:18.281Z,99332.91
2023-01-13T08:43:59.892Z,99337.38
2023-01-13T08:44:41.533Z,99324.63
2023-01-13T08:45:23.270Z,99332.63
2023-01-13T08:46:05.279Z,99344.66
2023-01-13T08:46:47.034Z,99341.00
2023-01-13T08:47:28.693Z,99340.00
2023-01-13T08:48:10.987Z,99332.44
2023-01-13T08:48:52.598Z,99336.34
2023-01-13T08:49:34.216Z,99343.47
2023-01-13T08:50:16.077Z,99351.41
2023-01-13T08:51:08.901Z,99362.59
2023-01-13T08:51:51.322Z,99334.91
2023-01-13T08:52:32.979Z,99368.06
2023-01-13T08:53:14.651Z,99343.75
2023-01-13T08:53:56.285Z,99338.19
2023-01-13T08:54:39.244Z,99373.78
2023-01-13T08:55:21.212Z,99337.00